< < Back
Terminal Aerodrome Forecast


Current Version              Previous Versions:   1  2  3  4  5  6  7  8  9  

Terminal Aerodrome Forecast

690
FTUS42 KJAX 250500
TAFJAX
TAF
KJAX 250532Z 2506/2606 00000KT P6SM SKC
     FM251400 36007KT P6SM SKC
     FM260200 00000KT P6SM SKC=

Latest METAR

980
SAUS80 KWBC 252100
MTRJAX
METAR KJAX 252056Z 34007KT 10SM CLR 25/08 A2995 RMK AO2 SLP144 T02500083
56010 $


USA.gov is the U.S. government's official web portal to all federal, state and local government web resources and services.